Time;durP1;ratioP1;P1;durP2;ratioP2;P2;SDS_P1;SDS_P2;PMS_P1;PMS_P2;Temp;Humidity;BMP_temperature;BMP_pressure;BME280_temperature;BME280_humidity;BME280_pressure;Samples;Min_cycle;Max_cycle;Signal;HPM_P1;HPM_P2
2023/05/13 00:00:12;;;;;;;;;;;19.70;69.00;;;;;;5095954;27;43048;-83
2023/05/13 00:02:38;;;;;;;;;;;19.80;69.10;;;;;;5102854;27;43070;-78
2023/05/13 00:05:03;;;;;;;;;;;19.70;69.10;;;;;;5104548;27;43628;-78
2023/05/13 00:07:29;;;;;;;;;;;19.70;69.00;;;;;;5103624;27;42918;-78
2023/05/13 00:09:54;;;;;;;;;;;19.70;69.10;;;;;;5104257;27;42923;-78
2023/05/13 00:12:20;;;;;;;;;;;19.70;69.30;;;;;;5108965;27;43068;-79
2023/05/13 00:14:45;;;;;;;;;;;19.60;69.10;;;;;;5108375;27;43605;-80
2023/05/13 00:17:11;;;;;;;;;;;19.60;69.60;;;;;;5107479;27;42930;-78
2023/05/13 00:19:36;;;;;;;;;;;19.70;69.60;;;;;;5106849;27;43737;-78
2023/05/13 00:22:02;;;;;;;;;;;19.70;69.30;;;;;;5106567;27;43122;-79
2023/05/13 00:24:28;;;;;;;;;;;19.70;69.20;;;;;;5108149;27;43535;-78
2023/05/13 00:26:54;;;;;;;;;;;19.70;69.70;;;;;;5108612;27;42804;-78
2023/05/13 00:29:20;;;;;;;;;;;19.90;69.50;;;;;;5107116;27;43687;-79
2023/05/13 00:31:45;;;;;;;;;;;19.80;69.40;;;;;;5101746;27;42915;-79
2023/05/13 00:34:11;;;;;;;;;;;19.80;69.40;;;;;;5099693;27;42980;-78
2023/05/13 00:36:36;;;;;;;;;;;19.60;69.30;;;;;;5107560;27;43013;-79
2023/05/13 00:39:02;;;;;;;;;;;19.60;69.40;;;;;;5107166;27;43644;-80
2023/05/13 00:41:28;;;;;;;;;;;19.80;69.10;;;;;;5108423;27;43086;-78
2023/05/13 00:43:55;;;;;;;;;;;19.70;69.50;;;;;;5108266;27;43510;-79
2023/05/13 00:46:20;;;;;;;;;;;19.90;69.40;;;;;;5108218;27;43327;-79
2023/05/13 00:48:46;;;;;;;;;;;19.80;69.50;;;;;;5106802;27;43004;-84
2023/05/13 00:51:11;;;;;;;;;;;19.70;69.30;;;;;;5107983;27;43241;-78
2023/05/13 00:53:38;;;;;;;;;;;19.70;69.30;;;;;;5108279;27;42974;-83
2023/05/13 00:56:03;;;;;;;;;;;19.60;69.50;;;;;;5106904;27;42850;-79
2023/05/13 00:58:29;;;;;;;;;;;19.60;68.90;;;;;;5106917;27;43016;-78
2023/05/13 01:00:57;;;;;;;;;;;19.60;69.60;;;;;;5108267;27;43315;-78
2023/05/13 01:03:28;;;;;;;;;;;19.70;69.20;;;;;;5107504;27;43736;-85
2023/05/13 01:06:12;;;;;;;;;;;19.90;69.70;;;;;;5106895;27;43276;-79
2023/05/13 01:08:52;;;;;;;;;;;19.70;69.40;;;;;;5107479;27;42863;-78
2023/05/13 01:11:20;;;;;;;;;;;20.00;67.40;;;;;;5107620;27;43052;-79
2023/05/13 01:13:48;;;;;;;;;;;19.70;69.60;;;;;;5087275;27;43648;-78
2023/05/13 01:16:16;;;;;;;;;;;19.80;69.50;;;;;;5087687;27;43066;-79
2023/05/13 01:19:04;;;;;;;;;;;19.70;67.20;;;;;;5106040;27;42941;-83
2023/05/13 01:21:34;;;;;;;;;;;19.90;69.80;;;;;;5107357;27;43264;-80
2023/05/13 01:24:00;;;;;;;;;;;19.80;69.70;;;;;;5107664;27;42842;-78
2023/05/13 01:26:25;;;;;;;;;;;19.80;69.60;;;;;;5108070;27;42869;-82
2023/05/13 01:28:51;;;;;;;;;;;19.80;70.20;;;;;;5107308;27;43205;-80
2023/05/13 01:31:17;;;;;;;;;;;20.00;70.00;;;;;;5106002;27;43527;-78
2023/05/13 01:33:43;;;;;;;;;;;19.80;69.70;;;;;;5106724;27;43830;-78
2023/05/13 01:36:09;;;;;;;;;;;19.90;70.00;;;;;;5082044;27;43138;-79
2023/05/13 01:38:35;;;;;;;;;;;19.90;70.10;;;;;;5099563;27;43259;-79
2023/05/13 01:41:01;;;;;;;;;;;19.60;69.60;;;;;;5107086;27;43029;-78
2023/05/13 01:43:26;;;;;;;;;;;19.90;69.80;;;;;;5107028;27;43887;-78
2023/05/13 01:45:52;;;;;;;;;;;20.10;70.00;;;;;;5107188;27;42891;-78
2023/05/13 01:48:17;;;;;;;;;;;19.90;69.90;;;;;;5107220;27;44468;-78
2023/05/13 01:50:44;;;;;;;;;;;19.90;69.70;;;;;;5107191;27;43056;-78
2023/05/13 01:53:09;;;;;;;;;;;19.90;70.10;;;;;;5107499;27;43380;-78
2023/05/13 01:55:35;;;;;;;;;;;19.90;69.90;;;;;;5106824;27;42815;-78
2023/05/13 01:58:00;;;;;;;;;;;19.80;70.20;;;;;;5107184;27;42973;-78
2023/05/13 02:00:26;;;;;;;;;;;19.70;70.20;;;;;;5107809;27;42965;-78
2023/05/13 02:02:51;;;;;;;;;;;19.90;70.00;;;;;;5107007;27;42835;-79
2023/05/13 02:05:17;;;;;;;;;;;20.00;70.50;;;;;;5106594;27;43036;-79
2023/05/13 02:07:43;;;;;;;;;;;20.10;70.20;;;;;;5107213;27;42843;-80
2023/05/13 02:10:09;;;;;;;;;;;19.70;70.00;;;;;;5105773;27;43429;-80
2023/05/13 02:12:35;;;;;;;;;;;19.90;69.90;;;;;;5106997;27;43796;-79
2023/05/13 02:15:01;;;;;;;;;;;19.70;70.10;;;;;;5106100;27;43083;-78
2023/05/13 02:17:26;;;;;;;;;;;19.70;70.30;;;;;;5106256;27;43191;-79
2023/05/13 02:19:52;;;;;;;;;;;19.80;70.70;;;;;;5106982;27;42953;-79
2023/05/13 02:22:17;;;;;;;;;;;19.70;70.50;;;;;;5084171;27;43091;-78
2023/05/13 02:24:43;;;;;;;;;;;19.90;70.40;;;;;;5085383;28;43206;-79
2023/05/13 02:27:11;;;;;;;;;;;19.70;70.30;;;;;;5104847;27;42888;-79
2023/05/13 02:29:37;;;;;;;;;;;19.80;70.40;;;;;;5106082;27;42953;-79
2023/05/13 02:32:03;;;;;;;;;;;19.70;70.50;;;;;;5105438;27;42931;-79
2023/05/13 02:34:28;;;;;;;;;;;19.90;70.40;;;;;;5103030;27;42966;-78
2023/05/13 02:36:54;;;;;;;;;;;19.80;70.40;;;;;;5105273;27;43550;-79
2023/05/13 02:39:19;;;;;;;;;;;19.90;70.50;;;;;;5105584;27;42906;-79
2023/05/13 02:41:45;;;;;;;;;;;19.90;70.80;;;;;;5104713;27;42980;-79
2023/05/13 02:44:10;;;;;;;;;;;19.90;70.90;;;;;;5103301;27;42915;-79
2023/05/13 02:46:36;;;;;;;;;;;19.80;70.60;;;;;;5091596;27;43568;-78
2023/05/13 02:49:01;;;;;;;;;;;19.80;70.30;;;;;;5105628;27;42951;-79
2023/05/13 02:51:27;;;;;;;;;;;19.80;70.40;;;;;;5103761;27;43827;-79
2023/05/13 02:53:53;;;;;;;;;;;19.70;70.80;;;;;;5105809;27;42957;-81
2023/05/13 02:56:18;;;;;;;;;;;19.80;70.70;;;;;;5084754;28;43205;-79
2023/05/13 02:58:44;;;;;;;;;;;19.80;70.50;;;;;;5084873;28;42985;-79
2023/05/13 03:01:10;;;;;;;;;;;19.90;70.40;;;;;;5090304;27;43385;-79
2023/05/13 03:03:35;;;;;;;;;;;19.80;70.60;;;;;;5104858;27;43050;-79
2023/05/13 03:06:01;;;;;;;;;;;19.80;70.40;;;;;;5104815;27;42871;-80
2023/05/13 03:08:26;;;;;;;;;;;19.80;70.70;;;;;;5104208;27;43031;-78
2023/05/13 03:10:52;;;;;;;;;;;19.90;70.50;;;;;;5104034;27;43583;-79
2023/05/13 03:13:17;;;;;;;;;;;19.60;70.70;;;;;;5105870;27;42811;-79
2023/05/13 03:15:43;;;;;;;;;;;19.70;70.30;;;;;;5089818;27;43814;-79
2023/05/13 03:18:08;;;;;;;;;;;20.00;70.90;;;;;;5086962;27;42922;-78
2023/05/13 03:20:34;;;;;;;;;;;19.90;70.80;;;;;;5104025;27;43536;-78
2023/05/13 03:22:59;;;;;;;;;;;20.10;71.00;;;;;;5105328;27;42907;-78
2023/05/13 03:25:25;;;;;;;;;;;19.70;70.50;;;;;;5103883;27;42840;-78
2023/05/13 03:27:50;;;;;;;;;;;19.80;70.70;;;;;;5104633;27;43016;-78
2023/05/13 03:30:16;;;;;;;;;;;19.80;70.90;;;;;;5104430;27;43642;-78
2023/05/13 03:32:41;;;;;;;;;;;19.80;70.80;;;;;;5104704;27;42974;-78
2023/05/13 03:35:07;;;;;;;;;;;20.10;70.80;;;;;;5105045;27;43797;-78
2023/05/13 03:37:33;;;;;;;;;;;19.70;70.80;;;;;;5105319;27;42839;-78
2023/05/13 03:39:58;;;;;;;;;;;19.80;70.90;;;;;;5104599;27;42986;-78
2023/05/13 03:42:25;;;;;;;;;;;19.80;71.30;;;;;;5104436;27;42975;-81
2023/05/13 03:44:50;;;;;;;;;;;19.80;71.10;;;;;;5105279;27;43628;-78
2023/05/13 03:47:16;;;;;;;;;;;20.00;71.70;;;;;;5103205;27;42934;-78
2023/05/13 03:49:41;;;;;;;;;;;19.80;71.50;;;;;;5078639;27;43614;-78
2023/05/13 03:52:07;;;;;;;;;;;19.80;71.10;;;;;;5102424;27;43095;-77
2023/05/13 03:54:32;;;;;;;;;;;20.00;71.30;;;;;;5104552;27;42966;-78
2023/05/13 03:56:58;;;;;;;;;;;19.80;71.40;;;;;;5105333;27;43083;-78
2023/05/13 03:59:23;;;;;;;;;;;19.80;71.00;;;;;;5105182;27;43028;-78
2023/05/13 04:01:49;;;;;;;;;;;19.90;71.30;;;;;;5103148;27;44195;-78
2023/05/13 04:04:14;;;;;;;;;;;19.80;71.30;;;;;;5103845;27;43649;-78
2023/05/13 04:06:40;;;;;;;;;;;19.80;71.30;;;;;;5103242;27;43096;-78
2023/05/13 04:09:06;;;;;;;;;;;19.80;71.60;;;;;;5102760;27;43088;-78
2023/05/13 04:11:32;;;;;;;;;;;19.80;71.30;;;;;;5084587;27;43117;-78
2023/05/13 04:13:57;;;;;;;;;;;19.90;71.70;;;;;;5103254;27;44399;-78
2023/05/13 04:16:24;;;;;;;;;;;20.00;71.70;;;;;;5083597;28;42809;-78
2023/05/13 04:18:50;;;;;;;;;;;19.90;71.60;;;;;;5083326;28;43461;-78
2023/05/13 04:21:15;;;;;;;;;;;19.80;71.40;;;;;;5085426;27;43094;-79
2023/05/13 04:23:41;;;;;;;;;;;19.90;71.80;;;;;;5104155;27;43022;-79
2023/05/13 04:26:07;;;;;;;;;;;19.80;71.50;;;;;;5085567;27;43060;-78
2023/05/13 04:28:33;;;;;;;;;;;19.90;71.40;;;;;;5104703;27;43685;-78
2023/05/13 04:30:59;;;;;;;;;;;20.00;71.80;;;;;;5102349;27;43420;-78
2023/05/13 04:33:24;;;;;;;;;;;19.90;71.30;;;;;;5102557;27;43014;-79
2023/05/13 04:35:50;;;;;;;;;;;19.90;71.40;;;;;;5103576;27;42997;-78
2023/05/13 04:38:15;;;;;;;;;;;19.80;71.70;;;;;;5103315;27;43590;-79
2023/05/13 04:40:42;;;;;;;;;;;19.90;71.70;;;;;;5103419;27;43065;-78
2023/05/13 04:43:07;;;;;;;;;;;19.90;72.00;;;;;;5097438;27;43587;-78
2023/05/13 04:45:33;;;;;;;;;;;19.80;71.80;;;;;;5082577;27;42920;-78
2023/05/13 04:47:58;;;;;;;;;;;19.80;71.90;;;;;;5094804;27;43454;-78
2023/05/13 04:50:24;;;;;;;;;;;19.80;71.70;;;;;;5103956;27;42936;-79
2023/05/13 04:52:50;;;;;;;;;;;17.80;70.70;;;;;;5103460;27;43869;-79
2023/05/13 04:55:15;;;;;;;;;;;20.00;71.60;;;;;;5103705;27;42917;-79
2023/05/13 04:57:41;;;;;;;;;;;19.90;71.70;;;;;;5088381;27;43017;-78
2023/05/13 05:00:08;;;;;;;;;;;20.00;71.80;;;;;;5106523;27;42937;-78
2023/05/13 05:02:33;;;;;;;;;;;19.80;71.00;;;;;;5107918;27;43490;-78
2023/05/13 05:04:59;;;;;;;;;;;19.90;71.60;;;;;;5099046;27;42895;-78
2023/05/13 05:07:24;;;;;;;;;;;19.80;71.80;;;;;;5106177;27;43431;-78
2023/05/13 05:09:50;;;;;;;;;;;19.80;71.90;;;;;;5107252;27;43110;-78
2023/05/13 05:12:15;;;;;;;;;;;19.90;71.60;;;;;;5107171;27;43172;-78
2023/05/13 05:14:41;;;;;;;;;;;19.80;72.00;;;;;;5106053;27;43034;-79
2023/05/13 05:17:06;;;;;;;;;;;19.90;71.50;;;;;;5107033;27;43594;-78
2023/05/13 05:19:32;;;;;;;;;;;19.90;71.60;;;;;;5108002;27;42732;-78
2023/05/13 05:21:57;;;;;;;;;;;19.80;71.50;;;;;;5107643;27;43096;-78
2023/05/13 05:24:23;;;;;;;;;;;19.90;71.60;;;;;;5106371;27;43320;-78
2023/05/13 05:26:48;;;;;;;;;;;19.80;71.60;;;;;;5106299;27;43518;-78
2023/05/13 05:29:14;;;;;;;;;;;20.00;71.90;;;;;;5101262;27;44021;-78
2023/05/13 05:31:40;;;;;;;;;;;19.90;71.60;;;;;;5104370;27;44249;-78
2023/05/13 05:34:05;;;;;;;;;;;19.90;71.90;;;;;;5106139;27;43030;-77
2023/05/13 05:36:31;;;;;;;;;;;19.90;71.60;;;;;;5106059;27;43562;-78
2023/05/13 05:38:56;;;;;;;;;;;19.50;72.30;;;;;;5106068;27;43060;-78
2023/05/13 05:41:22;;;;;;;;;;;19.90;72.60;;;;;;5106397;27;43425;-78
2023/05/13 05:43:47;;;;;;;;;;;19.90;72.00;;;;;;5106680;27;42974;-80
2023/05/13 05:46:13;;;;;;;;;;;19.90;71.70;;;;;;5105341;27;42985;-77
2023/05/13 05:48:38;;;;;;;;;;;19.80;72.00;;;;;;5104614;27;43045;-76
2023/05/13 05:51:04;;;;;;;;;;;19.80;71.90;;;;;;5108503;27;43645;-79
2023/05/13 05:53:30;;;;;;;;;;;19.90;71.60;;;;;;5099975;27;43064;-80
2023/05/13 05:55:56;;;;;;;;;;;20.00;72.30;;;;;;5092601;27;43895;-80
2023/05/13 05:58:22;;;;;;;;;;;19.80;72.30;;;;;;5103500;27;42999;-79
2023/05/13 06:00:47;;;;;;;;;;;20.00;72.20;;;;;;5104763;27;43053;-79
2023/05/13 06:03:13;;;;;;;;;;;19.90;72.30;;;;;;5105216;27;42861;-79
2023/05/13 06:05:38;;;;;;;;;;;19.90;71.90;;;;;;5093401;27;43497;-79
2023/05/13 06:08:04;;;;;;;;;;;19.90;72.40;;;;;;5098536;27;43609;-77
2023/05/13 06:10:30;;;;;;;;;;;19.90;72.20;;;;;;5110365;27;43396;-79
2023/05/13 06:12:55;;;;;;;;;;;20.00;72.30;;;;;;5104698;27;43400;-79
2023/05/13 06:15:21;;;;;;;;;;;19.90;72.00;;;;;;5085416;27;43034;-78
2023/05/13 06:17:46;;;;;;;;;;;19.90;72.60;;;;;;5101056;27;43221;-78
2023/05/13 06:20:12;;;;;;;;;;;20.00;72.10;;;;;;5103392;27;43524;-81
2023/05/13 06:22:38;;;;;;;;;;;20.00;72.40;;;;;;5102307;27;43020;-80
2023/05/13 06:25:04;;;;;;;;;;;19.80;72.30;;;;;;5097133;27;44450;-80
2023/05/13 06:27:30;;;;;;;;;;;19.90;72.20;;;;;;5103460;27;43127;-81
2023/05/13 06:29:55;;;;;;;;;;;19.80;72.10;;;;;;5104087;27;44263;-79
2023/05/13 06:32:21;;;;;;;;;;;19.90;72.60;;;;;;5104045;27;42935;-79
2023/05/13 06:34:47;;;;;;;;;;;19.90;72.20;;;;;;5103907;27;43695;-78
2023/05/13 06:37:12;;;;;;;;;;;19.90;72.70;;;;;;5104341;27;42957;-79
2023/05/13 06:39:38;;;;;;;;;;;19.90;72.80;;;;;;5102215;27;42969;-76
2023/05/13 06:42:04;;;;;;;;;;;19.80;72.40;;;;;;5104891;27;43012;-79
2023/05/13 06:44:29;;;;;;;;;;;19.70;72.60;;;;;;5103826;27;44200;-79
2023/05/13 06:46:55;;;;;;;;;;;19.80;72.20;;;;;;5103601;27;43051;-78
2023/05/13 06:49:20;;;;;;;;;;;19.90;72.10;;;;;;5106136;27;42903;-78
2023/05/13 06:51:47;;;;;;;;;;;19.80;71.20;;;;;;5105840;27;42933;-80
2023/05/13 06:54:12;;;;;;;;;;;20.00;70.60;;;;;;5105743;27;42965;-78
2023/05/13 06:56:38;;;;;;;;;;;19.60;70.60;;;;;;5104134;27;43067;-78
2023/05/13 06:59:03;;;;;;;;;;;19.70;70.70;;;;;;5103310;27;43012;-77
2023/05/13 07:01:29;;;;;;;;;;;19.80;69.90;;;;;;5099685;27;43521;-78
2023/05/13 07:03:54;;;;;;;;;;;19.90;70.10;;;;;;5100394;27;43608;-78
2023/05/13 07:06:20;;;;;;;;;;;20.00;69.90;;;;;;5105624;27;43251;-78
2023/05/13 07:08:45;;;;;;;;;;;19.80;69.80;;;;;;5104759;27;43618;-78
2023/05/13 07:11:11;;;;;;;;;;;19.80;70.00;;;;;;5105131;27;42963;-77
2023/05/13 07:13:36;;;;;;;;;;;19.80;69.40;;;;;;5107491;27;43008;-78
2023/05/13 07:16:02;;;;;;;;;;;19.80;69.70;;;;;;5100582;27;43170;-77
2023/05/13 07:18:28;;;;;;;;;;;19.80;69.30;;;;;;5098598;27;43058;-77
2023/05/13 07:20:55;;;;;;;;;;;19.80;69.00;;;;;;5109644;27;42885;-77
2023/05/13 07:23:20;;;;;;;;;;;19.80;69.40;;;;;;5113606;27;43554;-77
2023/05/13 07:25:46;;;;;;;;;;;19.40;69.40;;;;;;5114127;27;42918;-76
2023/05/13 07:28:12;;;;;;;;;;;19.80;69.70;;;;;;5099387;27;43261;-77
2023/05/13 07:30:40;;;;;;;;;;;19.90;70.40;;;;;;5097405;27;43725;-79
2023/05/13 07:33:06;;;;;;;;;;;19.60;67.00;;;;;;5098494;27;43570;-79
2023/05/13 07:35:31;;;;;;;;;;;19.80;69.50;;;;;;5081363;27;43073;-78
2023/05/13 07:37:57;;;;;;;;;;;19.60;69.80;;;;;;5085275;27;42944;-78
2023/05/13 07:40:22;;;;;;;;;;;19.80;69.90;;;;;;5084217;27;42892;-78
2023/05/13 07:42:48;;;;;;;;;;;19.80;69.90;;;;;;5086086;27;43092;-78
2023/05/13 07:45:13;;;;;;;;;;;19.90;70.20;;;;;;5090184;27;42990;-78
2023/05/13 07:47:39;;;;;;;;;;;19.70;70.30;;;;;;5098827;27;43503;-77
2023/05/13 07:50:05;;;;;;;;;;;19.90;70.20;;;;;;5096345;27;43086;-80
2023/05/13 07:52:31;;;;;;;;;;;19.70;70.10;;;;;;5102935;27;43404;-80
2023/05/13 07:54:56;;;;;;;;;;;19.70;70.10;;;;;;5102409;27;43004;-78
2023/05/13 07:57:22;;;;;;;;;;;19.80;70.40;;;;;;5102478;27;43385;-80
2023/05/13 07:59:47;;;;;;;;;;;19.80;70.30;;;;;;5096510;27;43008;-78
2023/05/13 08:02:13;;;;;;;;;;;19.80;70.30;;;;;;5101503;27;43039;-78
2023/05/13 08:04:39;;;;;;;;;;;19.80;70.40;;;;;;5101195;27;42934;-82
2023/05/13 08:07:04;;;;;;;;;;;19.40;69.70;;;;;;5102522;27;42977;-81
2023/05/13 08:09:30;;;;;;;;;;;19.70;70.00;;;;;;5098088;27;42995;-81
2023/05/13 08:11:55;;;;;;;;;;;19.90;70.40;;;;;;5082129;27;44179;-80
2023/05/13 08:14:21;;;;;;;;;;;19.80;69.80;;;;;;5101338;27;43585;-81
2023/05/13 08:16:46;;;;;;;;;;;19.80;69.80;;;;;;5088180;27;43040;-77
2023/05/13 08:19:13;;;;;;;;;;;19.80;68.40;;;;;;5099945;27;43147;-79
2023/05/13 08:21:38;;;;;;;;;;;19.90;67.50;;;;;;5097055;27;43481;-79
2023/05/13 08:24:04;;;;;;;;;;;19.80;66.90;;;;;;5104464;27;43054;-79
2023/05/13 08:26:29;;;;;;;;;;;19.80;66.50;;;;;;5121788;27;43468;-79
2023/05/13 08:28:56;;;;;;;;;;;19.70;66.30;;;;;;5105672;27;42976;-77
2023/05/13 08:31:23;;;;;;;;;;;19.50;66.20;;;;;;5101181;27;42990;-77
2023/05/13 08:33:50;;;;;;;;;;;19.40;66.50;;;;;;5108091;27;43172;-79
2023/05/13 08:36:16;;;;;;;;;;;19.40;66.20;;;;;;5107932;27;42851;-78
2023/05/13 08:38:42;;;;;;;;;;;19.40;66.70;;;;;;5108728;27;42868;-78
2023/05/13 08:41:09;;;;;;;;;;;19.40;67.40;;;;;;5108681;27;43034;-77
2023/05/13 08:43:35;;;;;;;;;;;19.40;67.60;;;;;;5107741;27;43178;-78
2023/05/13 08:46:02;;;;;;;;;;;19.60;67.40;;;;;;5107740;27;42985;-77
2023/05/13 08:48:28;;;;;;;;;;;19.50;66.40;;;;;;5085412;27;42987;-78
2023/05/13 08:50:55;;;;;;;;;;;19.40;66.40;;;;;;5106959;27;43285;-78
2023/05/13 08:53:21;;;;;;;;;;;19.50;66.80;;;;;;5088812;27;42898;-78
2023/05/13 08:55:47;;;;;;;;;;;19.40;66.60;;;;;;5084422;27;44398;-78
2023/05/13 08:58:12;;;;;;;;;;;19.70;66.90;;;;;;5107281;27;42852;-78
2023/05/13 09:00:38;;;;;;;;;;;19.60;66.70;;;;;;5108066;27;42920;-80
2023/05/13 09:03:03;;;;;;;;;;;19.50;67.10;;;;;;5107627;27;42813;-78
2023/05/13 09:05:30;;;;;;;;;;;19.50;66.70;;;;;;5107165;27;42999;-78
2023/05/13 09:07:56;;;;;;;;;;;19.50;67.40;;;;;;5107431;27;43025;-78
2023/05/13 09:10:21;;;;;;;;;;;19.50;66.60;;;;;;5107424;27;43288;-78
2023/05/13 09:12:51;;;;;;;;;;;19.60;66.20;;;;;;5107689;27;42993;-78
2023/05/13 09:15:23;;;;;;;;;;;19.70;65.50;;;;;;5107266;27;42934;-79
2023/05/13 09:17:51;;;;;;;;;;;19.70;63.20;;;;;;5107315;27;42953;-78
2023/05/13 09:20:17;;;;;;;;;;;19.60;66.20;;;;;;5107344;27;42918;-79
2023/05/13 09:22:45;;;;;;;;;;;19.50;64.50;;;;;;5107901;27;42919;-79
2023/05/13 09:25:12;;;;;;;;;;;19.50;65.40;;;;;;5105116;27;42963;-82
2023/05/13 09:27:39;;;;;;;;;;;19.40;65.90;;;;;;5079958;27;43036;-80
2023/05/13 09:30:05;;;;;;;;;;;19.60;64.70;;;;;;5104019;27;42897;-79
2023/05/13 09:32:31;;;;;;;;;;;19.60;64.80;;;;;;5099092;27;43053;-78
2023/05/13 09:34:56;;;;;;;;;;;19.50;64.80;;;;;;5101993;27;44395;-79
2023/05/13 09:37:23;;;;;;;;;;;19.00;64.30;;;;;;5105045;27;43103;-79
2023/05/13 09:39:51;;;;;;;;;;;19.40;65.10;;;;;;5105524;27;43561;-80
2023/05/13 09:42:17;;;;;;;;;;;19.40;65.00;;;;;;5105461;27;42993;-78
2023/05/13 09:44:43;;;;;;;;;;;19.30;65.20;;;;;;5103118;27;42963;-78
2023/05/13 09:47:12;;;;;;;;;;;19.60;65.40;;;;;;5106536;27;43020;-77
2023/05/13 09:49:39;;;;;;;;;;;19.50;62.70;;;;;;5106623;27;42921;-77
2023/05/13 09:52:08;;;;;;;;;;;19.50;64.60;;;;;;5101162;27;43283;-78
2023/05/13 09:54:35;;;;;;;;;;;19.70;64.60;;;;;;5103641;27;43096;-78
2023/05/13 09:57:01;;;;;;;;;;;19.50;64.90;;;;;;5105872;27;42909;-78
2023/05/13 09:59:26;;;;;;;;;;;19.60;65.00;;;;;;5106995;27;44432;-78
2023/05/13 10:01:53;;;;;;;;;;;19.40;65.00;;;;;;5107440;27;42851;-78
2023/05/13 10:04:19;;;;;;;;;;;19.90;66.30;;;;;;5102840;27;43429;-79
2023/05/13 10:06:46;;;;;;;;;;;19.30;64.90;;;;;;5105480;27;43189;-78
2023/05/13 10:09:12;;;;;;;;;;;19.30;65.50;;;;;;5105216;27;43385;-77
2023/05/13 10:11:38;;;;;;;;;;;19.40;65.20;;;;;;5106404;27;43078;-79
2023/05/13 10:14:04;;;;;;;;;;;19.70;65.50;;;;;;5099996;27;43000;-78
2023/05/13 10:16:33;;;;;;;;;;;19.40;65.20;;;;;;5104993;27;43299;-77
2023/05/13 10:18:59;;;;;;;;;;;19.50;65.10;;;;;;5112307;27;44185;-77
2023/05/13 10:21:25;;;;;;;;;;;19.50;64.90;;;;;;5113921;27;42896;-77
2023/05/13 10:23:51;;;;;;;;;;;19.40;65.10;;;;;;5106005;27;42967;-77
2023/05/13 10:26:16;;;;;;;;;;;19.50;65.50;;;;;;5089790;27;43564;-79
2023/05/13 10:28:42;;;;;;;;;;;19.40;65.40;;;;;;5100439;27;43039;-75
2023/05/13 10:31:08;;;;;;;;;;;19.40;65.10;;;;;;5103028;27;43216;-75
2023/05/13 10:33:34;;;;;;;;;;;19.40;65.40;;;;;;5080138;27;45525;-78
2023/05/13 10:36:12;;;;;;;;;;;19.30;65.50;;;;;;5104384;27;43123;-75
2023/05/13 10:39:01;;;;;;;;;;;19.50;65.60;;;;;;5098277;27;43010;-78
2023/05/13 10:41:33;;;;;;;;;;;19.30;65.20;;;;;;5102236;27;43052;-77
2023/05/13 10:43:59;;;;;;;;;;;19.30;65.40;;;;;;5099913;27;43123;-78
2023/05/13 10:46:25;;;;;;;;;;;19.40;65.50;;;;;;5098617;27;43312;-79
2023/05/13 10:48:54;;;;;;;;;;;19.40;65.40;;;;;;5078650;27;44254;-76
2023/05/13 10:51:22;;;;;;;;;;;19.40;65.00;;;;;;5078310;27;43237;-75
2023/05/13 10:53:50;;;;;;;;;;;19.50;65.50;;;;;;5098343;27;43757;-75
2023/05/13 10:56:18;;;;;;;;;;;19.50;66.20;;;;;;5082038;27;43046;-76
2023/05/13 10:58:55;;;;;;;;;;;19.40;66.30;;;;;;5078378;27;44837;-76
2023/05/13 11:01:27;;;;;;;;;;;19.50;66.60;;;;;;5104067;27;43411;-77
2023/05/13 11:03:53;;;;;;;;;;;19.40;66.70;;;;;;5083740;27;44709;-74
2023/05/13 11:06:22;;;;;;;;;;;19.30;67.10;;;;;;5102818;27;43048;-76
2023/05/13 11:08:49;;;;;;;;;;;19.40;67.60;;;;;;5102786;27;42771;-77
2023/05/13 11:11:17;;;;;;;;;;;19.40;67.50;;;;;;5097863;27;43189;-75
2023/05/13 11:13:43;;;;;;;;;;;19.40;67.20;;;;;;5102062;27;44181;-80
2023/05/13 11:16:11;;;;;;;;;;;19.40;67.20;;;;;;5101974;27;42993;-78
2023/05/13 11:18:37;;;;;;;;;;;19.40;67.20;;;;;;5103038;27;42971;-77
2023/05/13 11:21:05;;;;;;;;;;;19.30;66.90;;;;;;5103480;27;43019;-76
2023/05/13 11:23:48;;;;;;;;;;;19.40;67.00;;;;;;5092399;27;43709;-80
2023/05/13 11:26:18;;;;;;;;;;;19.60;66.40;;;;;;5096733;27;43134;-75
2023/05/13 11:28:57;;;;;;;;;;;19.20;66.40;;;;;;5097587;27;43063;-75
2023/05/13 11:31:24;;;;;;;;;;;19.80;66.60;;;;;;5093355;27;43043;-76
2023/05/13 11:34:10;;;;;;;;;;;19.20;66.50;;;;;;5096669;27;44085;-75
2023/05/13 11:36:36;;;;;;;;;;;19.30;66.20;;;;;;5096781;27;43024;-75
2023/05/13 11:39:21;;;;;;;;;;;19.40;65.90;;;;;;5103590;27;43184;-75
2023/05/13 11:41:50;;;;;;;;;;;19.30;63.00;;;;;;5101480;27;43068;-76
2023/05/13 11:44:17;;;;;;;;;;;19.90;66.10;;;;;;5102162;27;43378;-77
2023/05/13 11:46:49;;;;;;;;;;;19.40;65.90;;;;;;5103622;27;43018;-76
2023/05/13 11:49:41;;;;;;;;;;;19.30;66.00;;;;;;5094846;27;43776;-75
2023/05/13 11:52:09;;;;;;;;;;;19.40;63.80;;;;;;5086115;27;43579;-75
2023/05/13 11:54:47;;;;;;;;;;;19.40;66.20;;;;;;5096748;27;43794;-75
2023/05/13 11:57:13;;;;;;;;;;;19.40;63.40;;;;;;5120484;27;43023;-75
2023/05/13 11:59:39;;;;;;;;;;;19.50;65.80;;;;;;5125353;27;42858;-77
2023/05/13 12:02:05;;;;;;;;;;;19.30;65.40;;;;;;5093893;27;42957;-74
2023/05/13 12:04:30;;;;;;;;;;;19.50;65.60;;;;;;5103709;27;43016;-74
2023/05/13 12:06:56;;;;;;;;;;;19.40;65.70;;;;;;5105933;27;42936;-74
2023/05/13 12:09:22;;;;;;;;;;;19.30;66.80;;;;;;5106811;27;42942;-74
2023/05/13 12:11:49;;;;;;;;;;;19.40;67.00;;;;;;5088273;27;43399;-74
2023/05/13 12:14:15;;;;;;;;;;;19.20;67.00;;;;;;5107558;27;43062;-74
2023/05/13 12:16:41;;;;;;;;;;;19.20;67.50;;;;;;5107721;27;42871;-74
2023/05/13 12:19:06;;;;;;;;;;;19.40;67.50;;;;;;5102724;27;43657;-76
2023/05/13 12:21:32;;;;;;;;;;;19.40;66.80;;;;;;5099013;27;43212;-75
2023/05/13 12:23:58;;;;;;;;;;;19.50;66.70;;;;;;5107055;27;42990;-75
2023/05/13 12:26:24;;;;;;;;;;;19.30;66.90;;;;;;5105271;27;43058;-74
2023/05/13 12:28:59;;;;;;;;;;;19.30;67.20;;;;;;5083566;27;44603;-75
2023/05/13 12:31:25;;;;;;;;;;;19.30;64.70;;;;;;5105699;27;43144;-74
2023/05/13 12:33:50;;;;;;;;;;;19.00;66.90;;;;;;5106414;27;42993;-75
2023/05/13 12:36:19;;;;;;;;;;;19.40;67.20;;;;;;5082737;27;43260;-74
2023/05/13 12:38:58;;;;;;;;;;;19.50;65.20;;;;;;5100352;27;43620;-76
2023/05/13 12:41:24;;;;;;;;;;;19.50;67.20;;;;;;5104293;27;42913;-76
2023/05/13 12:43:57;;;;;;;;;;;19.30;66.80;;;;;;5100520;27;43838;-78
2023/05/13 12:46:23;;;;;;;;;;;19.40;67.00;;;;;;5104411;27;43296;-78
2023/05/13 12:48:51;;;;;;;;;;;19.20;67.30;;;;;;5103830;27;43315;-77
2023/05/13 12:51:16;;;;;;;;;;;19.60;66.80;;;;;;5105371;27;43083;-79
2023/05/13 12:53:42;;;;;;;;;;;19.60;67.00;;;;;;5097736;27;43290;-75
2023/05/13 12:56:08;;;;;;;;;;;19.50;67.80;;;;;;5072392;27;43313;-81
2023/05/13 12:58:34;;;;;;;;;;;19.60;67.60;;;;;;5069379;27;44581;-77
2023/05/13 13:00:59;;;;;;;;;;;18.80;67.50;;;;;;5099499;27;42980;-76
2023/05/13 13:03:26;;;;;;;;;;;;;;;;;;5104009;27;42998;-80
2023/05/13 13:05:52;;;;;;;;;;;19.60;67.90;;;;;;5097622;27;43135;-80
2023/05/13 13:08:17;;;;;;;;;;;19.50;68.00;;;;;;5094710;27;43029;-79
2023/05/13 13:10:43;;;;;;;;;;;19.10;67.70;;;;;;5086298;27;43093;-80
2023/05/13 13:13:08;;;;;;;;;;;19.50;68.20;;;;;;5103694;27;42947;-80
2023/05/13 13:15:34;;;;;;;;;;;19.60;68.30;;;;;;5099175;27;43017;-79
2023/05/13 13:17:59;;;;;;;;;;;19.50;68.50;;;;;;5095076;27;43450;-77
2023/05/13 13:20:25;;;;;;;;;;;19.70;68.50;;;;;;5079122;27;43045;-74
2023/05/13 13:22:51;;;;;;;;;;;19.30;68.40;;;;;;5092120;27;43566;-76
2023/05/13 13:25:17;;;;;;;;;;;19.60;68.90;;;;;;5097128;27;43104;-75
2023/05/13 13:27:43;;;;;;;;;;;19.00;68.00;;;;;;5100772;27;43345;-74
2023/05/13 13:30:08;;;;;;;;;;;19.50;68.40;;;;;;5104074;27;43050;-74
2023/05/13 13:32:34;;;;;;;;;;;19.00;67.80;;;;;;5106108;27;43534;-75
2023/05/13 13:35:01;;;;;;;;;;;19.50;68.60;;;;;;5098662;27;43191;-74
2023/05/13 13:37:27;;;;;;;;;;;19.60;67.80;;;;;;5089692;27;43567;-77
2023/05/13 13:39:53;;;;;;;;;;;19.30;67.90;;;;;;5085914;27;42988;-74
2023/05/13 13:42:19;;;;;;;;;;;19.50;68.30;;;;;;5086139;27;43560;-74
2023/05/13 13:44:45;;;;;;;;;;;19.60;68.50;;;;;;5089995;27;42950;-76
2023/05/13 13:47:10;;;;;;;;;;;19.50;68.50;;;;;;5086383;27;43237;-73
2023/05/13 13:49:36;;;;;;;;;;;19.50;68.40;;;;;;5087805;27;43030;-73
2023/05/13 13:52:01;;;;;;;;;;;19.50;68.20;;;;;;5068680;27;44160;-73
2023/05/13 13:54:27;;;;;;;;;;;19.50;68.40;;;;;;5084418;27;42978;-74
2023/05/13 13:56:52;;;;;;;;;;;19.50;68.40;;;;;;5086432;27;43430;-73
2023/05/13 13:59:18;;;;;;;;;;;19.40;68.30;;;;;;5084442;27;43053;-73
2023/05/13 14:01:44;;;;;;;;;;;19.50;68.30;;;;;;5084505;27;43462;-74
2023/05/13 14:04:10;;;;;;;;;;;21.30;69.50;;;;;;5085325;27;43194;-74
2023/05/13 14:06:36;;;;;;;;;;;19.50;68.80;;;;;;5068925;27;44404;-76
2023/05/13 14:09:02;;;;;;;;;;;19.70;69.20;;;;;;5067189;27;43268;-74
2023/05/13 14:11:28;;;;;;;;;;;19.40;69.40;;;;;;5090860;27;42962;-74
2023/05/13 14:13:53;;;;;;;;;;;19.50;69.50;;;;;;5087616;27;43672;-73